Terminal Aerodrome Forecast
Issued by NWS Nashville, TN

Home | Current Version | Previous Version | Text Only | Print | Product List | Glossary On
Versions: 1 2 3 4 5 6 7 8 9 10 11 12 13 14 15 16 17 18
965
FTUS44 KOHX 280837 AAA
TAFCSV
TAF AMD
KCSV 280837Z 2809/2906 16004KT P6SM BKN250
     FM281300 17007KT P6SM SCT050 BKN100
     FM290000 VRB03KT P6SM SCT100 BKN250=

USA.gov is the U.S. government's official web portal to all federal, state and local government web resources and services.